sensor_id;sensor_type;location;lat;lon;timestamp;P1;durP1;ratioP1;P2;durP2;ratioP2
26864;SDS011;40618;51.166;10.322;2022-09-21T00:01:05;1.00;;;0.90;;
26864;SDS011;40618;51.166;10.322;2022-09-21T00:03:39;0.57;;;0.50;;
26864;SDS011;40618;51.166;10.322;2022-09-21T00:06:24;0.60;;;0.60;;
26864;SDS011;40618;51.166;10.322;2022-09-21T00:08:52;1.55;;;0.50;;
26864;SDS011;40618;51.166;10.322;2022-09-21T00:11:20;0.82;;;0.52;;
26864;SDS011;40618;51.166;10.322;2022-09-21T00:13:52;0.93;;;0.60;;
26864;SDS011;40618;51.166;10.322;2022-09-21T00:16:21;0.60;;;0.60;;
26864;SDS011;40618;51.166;10.322;2022-09-21T00:18:48;0.98;;;0.60;;
26864;SDS011;40618;51.166;10.322;2022-09-21T00:21:14;0.47;;;0.47;;
26864;SDS011;40618;51.166;10.322;2022-09-21T00:23:40;0.68;;;0.57;;
26864;SDS011;40618;51.166;10.322;2022-09-21T00:26:07;0.55;;;0.47;;
26864;SDS011;40618;51.166;10.322;2022-09-21T00:28:36;0.60;;;0.60;;
26864;SDS011;40618;51.166;10.322;2022-09-21T00:31:04;1.52;;;0.70;;
26864;SDS011;40618;51.166;10.322;2022-09-21T00:33:35;0.63;;;0.63;;
26864;SDS011;40618;51.166;10.322;2022-09-21T00:36:02;1.25;;;0.77;;
26864;SDS011;40618;51.166;10.322;2022-09-21T00:38:34;2.97;;;1.10;;
26864;SDS011;40618;51.166;10.322;2022-09-21T00:41:01;1.30;;;0.73;;
26864;SDS011;40618;51.166;10.322;2022-09-21T00:43:31;1.42;;;1.17;;
26864;SDS011;40618;51.166;10.322;2022-09-21T00:48:32;1.00;;;0.80;;
26864;SDS011;40618;51.166;10.322;2022-09-21T00:51:02;1.48;;;1.17;;
26864;SDS011;40618;51.166;10.322;2022-09-21T00:53:32;1.17;;;1.08;;
26864;SDS011;40618;51.166;10.322;2022-09-21T00:56:00;0.85;;;0.82;;
26864;SDS011;40618;51.166;10.322;2022-09-21T00:58:29;1.27;;;1.02;;
26864;SDS011;40618;51.166;10.322;2022-09-21T01:00:59;2.45;;;1.00;;
26864;SDS011;40618;51.166;10.322;2022-09-21T01:03:25;1.88;;;1.10;;
26864;SDS011;40618;51.166;10.322;2022-09-21T01:05:53;2.00;;;1.45;;
26864;SDS011;40618;51.166;10.322;2022-09-21T01:08:20;2.72;;;1.40;;
26864;SDS011;40618;51.166;10.322;2022-09-21T01:17:18;8.93;;;1.67;;
26864;SDS011;40618;51.166;10.322;2022-09-21T01:34:28;2.17;;;1.42;;
26864;SDS011;40618;51.166;10.322;2022-09-21T01:37:01;3.90;;;1.40;;
26864;SDS011;40618;51.166;10.322;2022-09-21T01:39:36;5.78;;;1.55;;
26864;SDS011;40618;51.166;10.322;2022-09-21T01:42:08;11.25;;;1.48;;
26864;SDS011;40618;51.166;10.322;2022-09-21T01:44:38;6.93;;;1.40;;
26864;SDS011;40618;51.166;10.322;2022-09-21T01:47:07;10.52;;;1.50;;
26864;SDS011;40618;51.166;10.322;2022-09-21T01:49:39;4.80;;;1.20;;
26864;SDS011;40618;51.166;10.322;2022-09-21T01:52:17;14.63;;;1.25;;
26864;SDS011;40618;51.166;10.322;2022-09-21T01:54:51;5.13;;;1.02;;
26864;SDS011;40618;51.166;10.322;2022-09-21T01:57:42;1.80;;;1.02;;
26864;SDS011;40618;51.166;10.322;2022-09-21T02:00:47;2.50;;;0.82;;
26864;SDS011;40618;51.166;10.322;2022-09-21T02:06:02;14.00;;;0.82;;
26864;SDS011;40618;51.166;10.322;2022-09-21T02:08:31;17.48;;;1.08;;
26864;SDS011;40618;51.166;10.322;2022-09-21T02:10:58;1.02;;;0.65;;
26864;SDS011;40618;51.166;10.322;2022-09-21T02:13:27;17.00;;;1.40;;
26864;SDS011;40618;51.166;10.322;2022-09-21T02:16:04;14.05;;;1.42;;
26864;SDS011;40618;51.166;10.322;2022-09-21T02:19:20;20.98;;;1.50;;
26864;SDS011;40618;51.166;10.322;2022-09-21T02:24:39;7.03;;;0.90;;
26864;SDS011;40618;51.166;10.322;2022-09-21T02:30:21;4.50;;;1.00;;
26864;SDS011;40618;51.166;10.322;2022-09-21T02:33:10;1.00;;;0.90;;
26864;SDS011;40618;51.166;10.322;2022-09-21T02:38:49;17.67;;;1.90;;
26864;SDS011;40618;51.166;10.322;2022-09-21T02:41:25;6.35;;;1.02;;
26864;SDS011;40618;51.166;10.322;2022-09-21T02:47:25;14.57;;;1.40;;
26864;SDS011;40618;51.166;10.322;2022-09-21T02:50:08;0.95;;;0.90;;
26864;SDS011;40618;51.166;10.322;2022-09-21T02:52:43;3.92;;;0.65;;
26864;SDS011;40618;51.166;10.322;2022-09-21T02:55:08;0.50;;;0.40;;
26864;SDS011;40618;51.166;10.322;2022-09-21T02:57:37;9.60;;;0.90;;
26864;SDS011;40618;51.166;10.322;2022-09-21T03:00:03;1.27;;;0.75;;
26864;SDS011;40618;51.166;10.322;2022-09-21T03:02:37;3.13;;;0.73;;
26864;SDS011;40618;51.166;10.322;2022-09-21T03:05:05;1.83;;;1.02;;
26864;SDS011;40618;51.166;10.322;2022-09-21T03:07:33;2.28;;;0.75;;
26864;SDS011;40618;51.166;10.322;2022-09-21T03:09:58;5.43;;;0.82;;
26864;SDS011;40618;51.166;10.322;2022-09-21T03:12:24;8.27;;;0.80;;
26864;SDS011;40618;51.166;10.322;2022-09-21T03:14:50;12.00;;;1.30;;
26864;SDS011;40618;51.166;10.322;2022-09-21T03:17:17;3.85;;;0.95;;
26864;SDS011;40618;51.166;10.322;2022-09-21T03:19:43;11.02;;;1.30;;
26864;SDS011;40618;51.166;10.322;2022-09-21T03:22:09;12.40;;;1.33;;
26864;SDS011;40618;51.166;10.322;2022-09-21T03:24:34;13.43;;;1.10;;
26864;SDS011;40618;51.166;10.322;2022-09-21T03:27:12;35.13;;;1.92;;
26864;SDS011;40618;51.166;10.322;2022-09-21T03:29:43;15.18;;;1.67;;
26864;SDS011;40618;51.166;10.322;2022-09-21T03:32:10;29.45;;;2.35;;
26864;SDS011;40618;51.166;10.322;2022-09-21T03:34:36;28.15;;;1.50;;
26864;SDS011;40618;51.166;10.322;2022-09-21T03:37:03;10.30;;;1.15;;
26864;SDS011;40618;51.166;10.322;2022-09-21T03:39:31;17.95;;;1.73;;
26864;SDS011;40618;51.166;10.322;2022-09-21T03:41:56;26.27;;;1.58;;
26864;SDS011;40618;51.166;10.322;2022-09-21T03:44:23;5.47;;;1.00;;
26864;SDS011;40618;51.166;10.322;2022-09-21T03:46:50;17.48;;;1.30;;
26864;SDS011;40618;51.166;10.322;2022-09-21T03:49:18;13.95;;;1.35;;
26864;SDS011;40618;51.166;10.322;2022-09-21T03:51:44;1.83;;;0.95;;
26864;SDS011;40618;51.166;10.322;2022-09-21T03:54:10;25.52;;;1.75;;
26864;SDS011;40618;51.166;10.322;2022-09-21T03:56:36;16.98;;;1.33;;
26864;SDS011;40618;51.166;10.322;2022-09-21T03:59:02;28.42;;;1.90;;
26864;SDS011;40618;51.166;10.322;2022-09-21T04:01:28;18.60;;;1.38;;
26864;SDS011;40618;51.166;10.322;2022-09-21T04:03:53;17.95;;;1.42;;
26864;SDS011;40618;51.166;10.322;2022-09-21T04:06:19;29.23;;;1.95;;
26864;SDS011;40618;51.166;10.322;2022-09-21T04:08:45;17.45;;;1.52;;
26864;SDS011;40618;51.166;10.322;2022-09-21T04:11:11;27.63;;;1.70;;
26864;SDS011;40618;51.166;10.322;2022-09-21T04:13:41;56.22;;;2.88;;
26864;SDS011;40618;51.166;10.322;2022-09-21T04:16:07;27.38;;;2.13;;
26864;SDS011;40618;51.166;10.322;2022-09-21T04:18:35;40.00;;;2.03;;
26864;SDS011;40618;51.166;10.322;2022-09-21T04:21:04;4.00;;;0.80;;
26864;SDS011;40618;51.166;10.322;2022-09-21T04:23:30;21.40;;;1.80;;
26864;SDS011;40618;51.166;10.322;2022-09-21T04:25:56;8.00;;;1.10;;
26864;SDS011;40618;51.166;10.322;2022-09-21T04:28:23;17.55;;;1.92;;
26864;SDS011;40618;51.166;10.322;2022-09-21T04:30:52;28.50;;;2.13;;
26864;SDS011;40618;51.166;10.322;2022-09-21T04:35:52;20.17;;;2.17;;
26864;SDS011;40618;51.166;10.322;2022-09-21T04:38:19;18.35;;;2.70;;
26864;SDS011;40618;51.166;10.322;2022-09-21T04:40:52;26.60;;;1.92;;
26864;SDS011;40618;51.166;10.322;2022-09-21T04:43:20;43.55;;;2.05;;
26864;SDS011;40618;51.166;10.322;2022-09-21T04:45:47;3.97;;;1.33;;
26864;SDS011;40618;51.166;10.322;2022-09-21T04:48:12;19.83;;;2.47;;
26864;SDS011;40618;51.166;10.322;2022-09-21T04:50:38;18.55;;;3.28;;
26864;SDS011;40618;51.166;10.322;2022-09-21T04:53:04;38.72;;;4.18;;
26864;SDS011;40618;51.166;10.322;2022-09-21T04:55:30;15.15;;;2.25;;
26864;SDS011;40618;51.166;10.322;2022-09-21T04:57:56;33.97;;;4.25;;
26864;SDS011;40618;51.166;10.322;2022-09-21T05:00:21;12.38;;;2.08;;
26864;SDS011;40618;51.166;10.322;2022-09-21T05:02:47;8.32;;;1.38;;
26864;SDS011;40618;51.166;10.322;2022-09-21T05:05:13;18.52;;;2.70;;
26864;SDS011;40618;51.166;10.322;2022-09-21T05:07:38;23.90;;;2.30;;
26864;SDS011;40618;51.166;10.322;2022-09-21T05:10:04;4.05;;;1.77;;
26864;SDS011;40618;51.166;10.322;2022-09-21T05:12:31;9.77;;;2.38;;
26864;SDS011;40618;51.166;10.322;2022-09-21T05:14:58;8.68;;;2.50;;
26864;SDS011;40618;51.166;10.322;2022-09-21T05:17:24;11.52;;;2.63;;
26864;SDS011;40618;51.166;10.322;2022-09-21T05:19:50;13.43;;;2.67;;
26864;SDS011;40618;51.166;10.322;2022-09-21T05:22:20;6.10;;;2.63;;
26864;SDS011;40618;51.166;10.322;2022-09-21T05:24:45;20.13;;;3.83;;
26864;SDS011;40618;51.166;10.322;2022-09-21T05:27:11;16.67;;;3.58;;
26864;SDS011;40618;51.166;10.322;2022-09-21T05:29:38;6.97;;;2.90;;
26864;SDS011;40618;51.166;10.322;2022-09-21T05:32:07;14.43;;;2.88;;
26864;SDS011;40618;51.166;10.322;2022-09-21T05:37:43;19.02;;;2.45;;
26864;SDS011;40618;51.166;10.322;2022-09-21T05:40:17;8.38;;;3.03;;
26864;SDS011;40618;51.166;10.322;2022-09-21T05:42:44;2.97;;;1.50;;
26864;SDS011;40618;51.166;10.322;2022-09-21T05:45:14;18.73;;;2.33;;
26864;SDS011;40618;51.166;10.322;2022-09-21T05:47:47;17.55;;;2.20;;
26864;SDS011;40618;51.166;10.322;2022-09-21T05:50:33;9.45;;;1.25;;
26864;SDS011;40618;51.166;10.322;2022-09-21T05:56:41;12.15;;;1.30;;
26864;SDS011;40618;51.166;10.322;2022-09-21T06:05:12;8.70;;;1.60;;
26864;SDS011;40618;51.166;10.322;2022-09-21T06:07:39;5.25;;;1.20;;
26864;SDS011;40618;51.166;10.322;2022-09-21T06:10:06;2.63;;;1.52;;
26864;SDS011;40618;51.166;10.322;2022-09-21T06:12:33;8.93;;;1.40;;
26864;SDS011;40618;51.166;10.322;2022-09-21T06:14:59;6.68;;;1.85;;
26864;SDS011;40618;51.166;10.322;2022-09-21T06:17:25;11.63;;;1.75;;
26864;SDS011;40618;51.166;10.322;2022-09-21T06:19:51;11.27;;;1.73;;
26864;SDS011;40618;51.166;10.322;2022-09-21T06:22:18;11.20;;;2.00;;
26864;SDS011;40618;51.166;10.322;2022-09-21T06:24:44;23.75;;;2.53;;
26864;SDS011;40618;51.166;10.322;2022-09-21T06:27:10;19.42;;;2.80;;
26864;SDS011;40618;51.166;10.322;2022-09-21T06:29:35;41.80;;;3.30;;
26864;SDS011;40618;51.166;10.322;2022-09-21T06:32:02;36.80;;;3.60;;
26864;SDS011;40618;51.166;10.322;2022-09-21T06:34:28;33.53;;;3.25;;
26864;SDS011;40618;51.166;10.322;2022-09-21T06:36:55;26.67;;;2.65;;
26864;SDS011;40618;51.166;10.322;2022-09-21T06:39:21;20.52;;;1.92;;
26864;SDS011;40618;51.166;10.322;2022-09-21T06:41:46;23.77;;;2.05;;
26864;SDS011;40618;51.166;10.322;2022-09-21T06:44:12;6.53;;;1.40;;
26864;SDS011;40618;51.166;10.322;2022-09-21T06:46:38;19.27;;;1.63;;
26864;SDS011;40618;51.166;10.322;2022-09-21T06:49:04;7.97;;;1.42;;
26864;SDS011;40618;51.166;10.322;2022-09-21T06:51:30;18.50;;;1.42;;
26864;SDS011;40618;51.166;10.322;2022-09-21T06:53:56;10.02;;;1.20;;
26864;SDS011;40618;51.166;10.322;2022-09-21T06:56:23;11.43;;;1.52;;
26864;SDS011;40618;51.166;10.322;2022-09-21T06:58:50;12.68;;;1.33;;
26864;SDS011;40618;51.166;10.322;2022-09-21T07:01:17;11.32;;;1.40;;
26864;SDS011;40618;51.166;10.322;2022-09-21T07:03:43;9.65;;;1.33;;
26864;SDS011;40618;51.166;10.322;2022-09-21T07:06:14;24.27;;;1.55;;
26864;SDS011;40618;51.166;10.322;2022-09-21T07:08:40;8.38;;;1.50;;
26864;SDS011;40618;51.166;10.322;2022-09-21T07:11:06;8.73;;;1.20;;
26864;SDS011;40618;51.166;10.322;2022-09-21T07:13:32;11.70;;;1.35;;
26864;SDS011;40618;51.166;10.322;2022-09-21T07:16:02;10.45;;;1.58;;
26864;SDS011;40618;51.166;10.322;2022-09-21T07:18:33;17.15;;;1.50;;
26864;SDS011;40618;51.166;10.322;2022-09-21T07:21:03;10.43;;;1.40;;
26864;SDS011;40618;51.166;10.322;2022-09-21T07:23:32;20.15;;;1.58;;
26864;SDS011;40618;51.166;10.322;2022-09-21T07:26:02;15.75;;;1.38;;
26864;SDS011;40618;51.166;10.322;2022-09-21T07:28:30;3.35;;;0.90;;
26864;SDS011;40618;51.166;10.322;2022-09-21T07:30:57;5.88;;;1.25;;
26864;SDS011;40618;51.166;10.322;2022-09-21T07:33:23;2.13;;;1.40;;
26864;SDS011;40618;51.166;10.322;2022-09-21T07:35:50;7.10;;;1.45;;
26864;SDS011;40618;51.166;10.322;2022-09-21T07:38:20;7.78;;;1.60;;
26864;SDS011;40618;51.166;10.322;2022-09-21T07:40:46;9.18;;;2.13;;
26864;SDS011;40618;51.166;10.322;2022-09-21T07:43:12;11.93;;;1.40;;
26864;SDS011;40618;51.166;10.322;2022-09-21T07:45:38;8.80;;;1.00;;
26864;SDS011;40618;51.166;10.322;2022-09-21T07:48:04;17.15;;;1.38;;
26864;SDS011;40618;51.166;10.322;2022-09-21T07:50:32;13.07;;;1.50;;
26864;SDS011;40618;51.166;10.322;2022-09-21T07:52:59;1.50;;;1.23;;
26864;SDS011;40618;51.166;10.322;2022-09-21T07:55:26;6.97;;;1.25;;
26864;SDS011;40618;51.166;10.322;2022-09-21T07:57:52;2.42;;;1.00;;
26864;SDS011;40618;51.166;10.322;2022-09-21T08:00:37;1.90;;;1.02;;
26864;SDS011;40618;51.166;10.322;2022-09-21T08:03:03;1.40;;;1.13;;
26864;SDS011;40618;51.166;10.322;2022-09-21T08:05:30;2.58;;;1.20;;
26864;SDS011;40618;51.166;10.322;2022-09-21T08:07:57;1.30;;;1.20;;
26864;SDS011;40618;51.166;10.322;2022-09-21T08:10:23;1.40;;;1.20;;
26864;SDS011;40618;51.166;10.322;2022-09-21T08:12:52;1.50;;;1.20;;
26864;SDS011;40618;51.166;10.322;2022-09-21T08:15:18;2.63;;;1.50;;
26864;SDS011;40618;51.166;10.322;2022-09-21T08:17:43;3.60;;;1.45;;
26864;SDS011;40618;51.166;10.322;2022-09-21T08:20:09;1.80;;;1.30;;
26864;SDS011;40618;51.166;10.322;2022-09-21T08:22:35;6.75;;;1.45;;
26864;SDS011;40618;51.166;10.322;2022-09-21T08:25:01;1.52;;;1.30;;
26864;SDS011;40618;51.166;10.322;2022-09-21T08:27:28;1.58;;;1.30;;
26864;SDS011;40618;51.166;10.322;2022-09-21T08:29:54;2.40;;;1.40;;
26864;SDS011;40618;51.166;10.322;2022-09-21T08:32:20;3.33;;;1.75;;
26864;SDS011;40618;51.166;10.322;2022-09-21T08:34:45;2.33;;;1.30;;
26864;SDS011;40618;51.166;10.322;2022-09-21T08:37:11;2.10;;;1.50;;
26864;SDS011;40618;51.166;10.322;2022-09-21T08:39:36;2.25;;;1.60;;
26864;SDS011;40618;51.166;10.322;2022-09-21T08:42:30;4.10;;;1.52;;
26864;SDS011;40618;51.166;10.322;2022-09-21T08:45:13;1.75;;;1.60;;
26864;SDS011;40618;51.166;10.322;2022-09-21T08:47:43;1.17;;;1.08;;
26864;SDS011;40618;51.166;10.322;2022-09-21T08:53:04;3.72;;;1.48;;
26864;SDS011;40618;51.166;10.322;2022-09-21T08:55:37;2.47;;;1.75;;
26864;SDS011;40618;51.166;10.322;2022-09-21T08:58:04;1.92;;;1.50;;
26864;SDS011;40618;51.166;10.322;2022-09-21T09:00:41;1.77;;;1.55;;
26864;SDS011;40618;51.166;10.322;2022-09-21T09:14:57;2.05;;;1.45;;
26864;SDS011;40618;51.166;10.322;2022-09-21T09:20:41;2.72;;;1.88;;
26864;SDS011;40618;51.166;10.322;2022-09-21T09:25:50;2.83;;;1.52;;
26864;SDS011;40618;51.166;10.322;2022-09-21T09:31:35;1.58;;;1.48;;
26864;SDS011;40618;51.166;10.322;2022-09-21T09:34:08;2.75;;;1.65;;
26864;SDS011;40618;51.166;10.322;2022-09-21T09:36:45;2.08;;;1.40;;
26864;SDS011;40618;51.166;10.322;2022-09-21T09:39:18;2.42;;;1.55;;
26864;SDS011;40618;51.166;10.322;2022-09-21T09:41:54;3.00;;;1.63;;
26864;SDS011;40618;51.166;10.322;2022-09-21T09:53:11;5.07;;;1.60;;
26864;SDS011;40618;51.166;10.322;2022-09-21T09:55:44;3.65;;;1.40;;
26864;SDS011;40618;51.166;10.322;2022-09-21T10:04:13;2.22;;;1.10;;
26864;SDS011;40618;51.166;10.322;2022-09-21T10:06:41;1.20;;;1.10;;
26864;SDS011;40618;51.166;10.322;2022-09-21T10:09:28;2.78;;;1.40;;
26864;SDS011;40618;51.166;10.322;2022-09-21T10:14:49;2.30;;;1.10;;
26864;SDS011;40618;51.166;10.322;2022-09-21T10:17:18;2.42;;;1.42;;
26864;SDS011;40618;51.166;10.322;2022-09-21T10:19:45;1.42;;;1.15;;
26864;SDS011;40618;51.166;10.322;2022-09-21T10:22:17;0.95;;;0.90;;
26864;SDS011;40618;51.166;10.322;2022-09-21T10:24:45;3.08;;;1.38;;
26864;SDS011;40618;51.166;10.322;2022-09-21T10:27:17;2.22;;;1.30;;
26864;SDS011;40618;51.166;10.322;2022-09-21T10:29:50;5.43;;;1.80;;
26864;SDS011;40618;51.166;10.322;2022-09-21T10:32:23;3.47;;;2.00;;
26864;SDS011;40618;51.166;10.322;2022-09-21T10:37:40;2.42;;;1.10;;
26864;SDS011;40618;51.166;10.322;2022-09-21T10:42:44;1.00;;;0.82;;
26864;SDS011;40618;51.166;10.322;2022-09-21T10:47:42;2.30;;;0.70;;
26864;SDS011;40618;51.166;10.322;2022-09-21T10:55:38;3.28;;;0.80;;
26864;SDS011;40618;51.166;10.322;2022-09-21T10:58:15;3.95;;;0.90;;
26864;SDS011;40618;51.166;10.322;2022-09-21T11:00:43;1.95;;;1.00;;
26864;SDS011;40618;51.166;10.322;2022-09-21T11:11:41;2.38;;;0.65;;
26864;SDS011;40618;51.166;10.322;2022-09-21T11:20:23;0.95;;;0.57;;
26864;SDS011;40618;51.166;10.322;2022-09-21T11:26:16;2.40;;;0.98;;
26864;SDS011;40618;51.166;10.322;2022-09-21T11:29:08;2.45;;;0.75;;
26864;SDS011;40618;51.166;10.322;2022-09-21T11:58:36;1.40;;;0.80;;
26864;SDS011;40618;51.166;10.322;2022-09-21T12:12:42;4.38;;;0.80;;
26864;SDS011;40618;51.166;10.322;2022-09-21T12:18:51;1.20;;;0.90;;
26864;SDS011;40618;51.166;10.322;2022-09-21T12:21:39;7.47;;;3.42;;
26864;SDS011;40618;51.166;10.322;2022-09-21T12:24:21;4.32;;;2.50;;
26864;SDS011;40618;51.166;10.322;2022-09-21T12:26:56;5.85;;;1.50;;
26864;SDS011;40618;51.166;10.322;2022-09-21T12:29:37;2.10;;;1.13;;
26864;SDS011;40618;51.166;10.322;2022-09-21T12:35:42;0.65;;;0.63;;
26864;SDS011;40618;51.166;10.322;2022-09-21T12:38:20;1.70;;;0.50;;
26864;SDS011;40618;51.166;10.322;2022-09-21T12:43:42;1.30;;;1.05;;
26864;SDS011;40618;51.166;10.322;2022-09-21T12:46:37;2.17;;;1.40;;
26864;SDS011;40618;51.166;10.322;2022-09-21T12:49:16;1.17;;;1.00;;
26864;SDS011;40618;51.166;10.322;2022-09-21T12:51:51;1.08;;;0.60;;
26864;SDS011;40618;51.166;10.322;2022-09-21T12:54:32;2.42;;;1.00;;
26864;SDS011;40618;51.166;10.322;2022-09-21T13:02:37;1.50;;;0.70;;
26864;SDS011;40618;51.166;10.322;2022-09-21T13:10:39;1.42;;;0.98;;
26864;SDS011;40618;51.166;10.322;2022-09-21T13:13:26;2.22;;;0.63;;
26864;SDS011;40618;51.166;10.322;2022-09-21T13:16:00;1.33;;;0.40;;
26864;SDS011;40618;51.166;10.322;2022-09-21T13:20:59;1.27;;;0.38;;
26864;SDS011;40618;51.166;10.322;2022-09-21T13:23:38;1.00;;;0.43;;
26864;SDS011;40618;51.166;10.322;2022-09-21T13:26:06;2.47;;;0.70;;
26864;SDS011;40618;51.166;10.322;2022-09-21T13:28:42;0.70;;;0.40;;
26864;SDS011;40618;51.166;10.322;2022-09-21T13:34:38;1.67;;;0.28;;
26864;SDS011;40618;51.166;10.322;2022-09-21T13:47:27;1.52;;;0.40;;
26864;SDS011;40618;51.166;10.322;2022-09-21T13:49:57;0.95;;;0.30;;
26864;SDS011;40618;51.166;10.322;2022-09-21T13:55:53;1.13;;;0.50;;
26864;SDS011;40618;51.166;10.322;2022-09-21T13:58:31;1.08;;;0.60;;
26864;SDS011;40618;51.166;10.322;2022-09-21T14:01:05;1.65;;;0.40;;
26864;SDS011;40618;51.166;10.322;2022-09-21T14:03:45;4.88;;;0.60;;
26864;SDS011;40618;51.166;10.322;2022-09-21T14:06:19;0.88;;;0.40;;
26864;SDS011;40618;51.166;10.322;2022-09-21T14:08:59;1.67;;;0.50;;
26864;SDS011;40618;51.166;10.322;2022-09-21T14:11:30;1.55;;;0.63;;
26864;SDS011;40618;51.166;10.322;2022-09-21T14:32:34;3.58;;;3.28;;
26864;SDS011;40618;51.166;10.322;2022-09-21T14:35:19;2.33;;;1.65;;
26864;SDS011;40618;51.166;10.322;2022-09-21T14:37:51;1.85;;;1.20;;
26864;SDS011;40618;51.166;10.322;2022-09-21T14:40:21;1.48;;;1.25;;
26864;SDS011;40618;51.166;10.322;2022-09-21T14:43:12;1.80;;;0.70;;
26864;SDS011;40618;51.166;10.322;2022-09-21T14:55:23;2.22;;;0.77;;
26864;SDS011;40618;51.166;10.322;2022-09-21T15:00:43;2.03;;;0.77;;
26864;SDS011;40618;51.166;10.322;2022-09-21T15:10:24;3.72;;;2.47;;
26864;SDS011;40618;51.166;10.322;2022-09-21T15:16:16;0.77;;;0.73;;
26864;SDS011;40618;51.166;10.322;2022-09-21T15:18:46;1.48;;;0.88;;
26864;SDS011;40618;51.166;10.322;2022-09-21T15:21:25;3.20;;;0.73;;
26864;SDS011;40618;51.166;10.322;2022-09-21T15:23:53;5.43;;;2.13;;
26864;SDS011;40618;51.166;10.322;2022-09-21T15:26:23;2.38;;;1.30;;
26864;SDS011;40618;51.166;10.322;2022-09-21T15:29:00;5.03;;;1.60;;
26864;SDS011;40618;51.166;10.322;2022-09-21T15:31:31;3.55;;;1.38;;
26864;SDS011;40618;51.166;10.322;2022-09-21T15:34:02;2.28;;;1.20;;
26864;SDS011;40618;51.166;10.322;2022-09-21T15:36:30;6.60;;;4.63;;
26864;SDS011;40618;51.166;10.322;2022-09-21T15:39:00;3.42;;;1.20;;
26864;SDS011;40618;51.166;10.322;2022-09-21T15:41:42;1.70;;;0.77;;
26864;SDS011;40618;51.166;10.322;2022-09-21T15:46:55;3.20;;;2.50;;
26864;SDS011;40618;51.166;10.322;2022-09-21T15:49:25;3.13;;;2.83;;
26864;SDS011;40618;51.166;10.322;2022-09-21T15:51:57;2.90;;;2.00;;
26864;SDS011;40618;51.166;10.322;2022-09-21T15:54:51;2.97;;;1.30;;
26864;SDS011;40618;51.166;10.322;2022-09-21T16:00:05;0.90;;;0.40;;
26864;SDS011;40618;51.166;10.322;2022-09-21T16:05:31;1.80;;;0.65;;
26864;SDS011;40618;51.166;10.322;2022-09-21T16:08:15;7.53;;;2.88;;
26864;SDS011;40618;51.166;10.322;2022-09-21T16:10:50;2.97;;;1.52;;
26864;SDS011;40618;51.166;10.322;2022-09-21T16:13:17;3.30;;;1.67;;
26864;SDS011;40618;51.166;10.322;2022-09-21T16:16:03;1.60;;;0.80;;
26864;SDS011;40618;51.166;10.322;2022-09-21T16:18:41;5.80;;;1.60;;
26864;SDS011;40618;51.166;10.322;2022-09-21T16:21:25;4.50;;;1.67;;
26864;SDS011;40618;51.166;10.322;2022-09-21T16:24:06;3.45;;;1.95;;
26864;SDS011;40618;51.166;10.322;2022-09-21T16:26:54;2.30;;;1.00;;
26864;SDS011;40618;51.166;10.322;2022-09-21T16:29:25;1.40;;;0.80;;
26864;SDS011;40618;51.166;10.322;2022-09-21T16:35:29;2.28;;;1.00;;
26864;SDS011;40618;51.166;10.322;2022-09-21T16:37:56;4.28;;;1.00;;
26864;SDS011;40618;51.166;10.322;2022-09-21T16:40:23;9.02;;;5.00;;
26864;SDS011;40618;51.166;10.322;2022-09-21T16:42:50;10.40;;;7.25;;
26864;SDS011;40618;51.166;10.322;2022-09-21T16:45:21;10.43;;;6.13;;
26864;SDS011;40618;51.166;10.322;2022-09-21T16:47:55;13.45;;;5.00;;
26864;SDS011;40618;51.166;10.322;2022-09-21T16:50:23;8.90;;;3.88;;
26864;SDS011;40618;51.166;10.322;2022-09-21T16:52:49;6.18;;;2.90;;
26864;SDS011;40618;51.166;10.322;2022-09-21T16:55:16;10.52;;;3.95;;
26864;SDS011;40618;51.166;10.322;2022-09-21T16:57:46;3.30;;;1.60;;
26864;SDS011;40618;51.166;10.322;2022-09-21T17:00:13;1.73;;;1.38;;
26864;SDS011;40618;51.166;10.322;2022-09-21T17:02:44;4.30;;;2.15;;
26864;SDS011;40618;51.166;10.322;2022-09-21T17:05:12;11.10;;;7.13;;
26864;SDS011;40618;51.166;10.322;2022-09-21T17:07:53;6.38;;;3.67;;
26864;SDS011;40618;51.166;10.322;2022-09-21T17:10:30;4.65;;;2.55;;
26864;SDS011;40618;51.166;10.322;2022-09-21T17:13:06;3.38;;;1.80;;
26864;SDS011;40618;51.166;10.322;2022-09-21T17:15:33;2.10;;;0.90;;
26864;SDS011;40618;51.166;10.322;2022-09-21T17:18:00;1.15;;;0.90;;
26864;SDS011;40618;51.166;10.322;2022-09-21T17:20:37;1.75;;;0.90;;
26864;SDS011;40618;51.166;10.322;2022-09-21T17:23:06;2.92;;;0.80;;
26864;SDS011;40618;51.166;10.322;2022-09-21T17:25:33;1.13;;;0.80;;
26864;SDS011;40618;51.166;10.322;2022-09-21T17:28:00;3.00;;;1.20;;
26864;SDS011;40618;51.166;10.322;2022-09-21T17:30:29;1.63;;;1.03;;
26864;SDS011;40618;51.166;10.322;2022-09-21T17:32:56;2.17;;;1.30;;
26864;SDS011;40618;51.166;10.322;2022-09-21T17:35:32;2.80;;;1.33;;
26864;SDS011;40618;51.166;10.322;2022-09-21T17:38:03;2.17;;;1.60;;
26864;SDS011;40618;51.166;10.322;2022-09-21T17:40:30;9.30;;;3.42;;
26864;SDS011;40618;51.166;10.322;2022-09-21T17:45:57;3.83;;;1.85;;
26864;SDS011;40618;51.166;10.322;2022-09-21T17:48:41;2.00;;;1.35;;
26864;SDS011;40618;51.166;10.322;2022-09-21T17:51:07;3.15;;;1.30;;
26864;SDS011;40618;51.166;10.322;2022-09-21T17:53:34;1.88;;;1.10;;
26864;SDS011;40618;51.166;10.322;2022-09-21T17:56:21;4.03;;;1.00;;
26864;SDS011;40618;51.166;10.322;2022-09-21T17:59:22;2.55;;;1.30;;
26864;SDS011;40618;51.166;10.322;2022-09-21T18:01:58;2.55;;;1.08;;
26864;SDS011;40618;51.166;10.322;2022-09-21T18:04:26;1.20;;;0.73;;
26864;SDS011;40618;51.166;10.322;2022-09-21T18:06:55;2.80;;;1.52;;
26864;SDS011;40618;51.166;10.322;2022-09-21T18:09:21;3.78;;;1.40;;
26864;SDS011;40618;51.166;10.322;2022-09-21T18:20:51;3.22;;;1.40;;
26864;SDS011;40618;51.166;10.322;2022-09-21T18:26:11;2.75;;;1.00;;
26864;SDS011;40618;51.166;10.322;2022-09-21T18:28:46;2.00;;;0.80;;
26864;SDS011;40618;51.166;10.322;2022-09-21T18:43:41;1.40;;;1.10;;
26864;SDS011;40618;51.166;10.322;2022-09-21T18:46:17;3.03;;;1.58;;
26864;SDS011;40618;51.166;10.322;2022-09-21T18:49:01;2.72;;;1.23;;
26864;SDS011;40618;51.166;10.322;2022-09-21T18:52:10;3.30;;;1.90;;
26864;SDS011;40618;51.166;10.322;2022-09-21T18:55:00;2.30;;;1.40;;
26864;SDS011;40618;51.166;10.322;2022-09-21T18:57:27;3.22;;;1.05;;
26864;SDS011;40618;51.166;10.322;2022-09-21T18:59:56;3.53;;;1.10;;
26864;SDS011;40618;51.166;10.322;2022-09-21T19:02:23;1.80;;;1.08;;
26864;SDS011;40618;51.166;10.322;2022-09-21T19:04:49;5.07;;;1.05;;
26864;SDS011;40618;51.166;10.322;2022-09-21T19:07:24;2.60;;;1.30;;
26864;SDS011;40618;51.166;10.322;2022-09-21T19:10:14;2.10;;;1.20;;
26864;SDS011;40618;51.166;10.322;2022-09-21T19:15:24;3.72;;;1.80;;
26864;SDS011;40618;51.166;10.322;2022-09-21T19:18:15;2.90;;;1.10;;
26864;SDS011;40618;51.166;10.322;2022-09-21T19:24:21;1.92;;;0.82;;
26864;SDS011;40618;51.166;10.322;2022-09-21T19:32:21;1.60;;;1.15;;
26864;SDS011;40618;51.166;10.322;2022-09-21T19:35:12;4.38;;;1.80;;
26864;SDS011;40618;51.166;10.322;2022-09-21T19:37:49;10.05;;;2.75;;
26864;SDS011;40618;51.166;10.322;2022-09-21T19:40:19;33.10;;;11.23;;
26864;SDS011;40618;51.166;10.322;2022-09-21T19:45:51;41.67;;;16.20;;
26864;SDS011;40618;51.166;10.322;2022-09-21T19:48:45;30.63;;;11.10;;
26864;SDS011;40618;51.166;10.322;2022-09-21T19:51:17;43.28;;;13.70;;
26864;SDS011;40618;51.166;10.322;2022-09-21T19:53:55;42.10;;;15.32;;
26864;SDS011;40618;51.166;10.322;2022-09-21T19:56:44;19.67;;;8.57;;